createdAt,value
2022-11-16T00:00:15.492Z,94331.06
2022-11-16T00:02:45.032Z,94324.13
2022-11-16T00:05:14.876Z,94319.31
2022-11-16T00:07:44.427Z,94329.19
2022-11-16T00:10:14.072Z,94332.66
2022-11-16T00:12:44.927Z,94331.84
2022-11-16T00:15:14.305Z,94343.56
2022-11-16T00:17:43.753Z,94338.78
2022-11-16T00:20:13.567Z,94336.09
2022-11-16T00:22:44.225Z,94334.25
2022-11-16T00:25:14.331Z,94343.03
2022-11-16T00:27:45.184Z,94334.75
2022-11-16T00:30:15.519Z,94341.97
2022-11-16T00:32:45.300Z,94337.69
2022-11-16T00:35:15.015Z,94334.75
2022-11-16T00:37:45.246Z,94321.97
2022-11-16T00:40:17.475Z,94329.19
2022-11-16T00:42:48.344Z,94319.06
2022-11-16T00:45:17.946Z,94320.41
2022-11-16T00:47:47.383Z,94323.59
2022-11-16T00:50:17.752Z,94324.13
2022-11-16T00:52:47.358Z,94319.31
2022-11-16T00:55:16.952Z,94315.59
2022-11-16T00:57:48.108Z,94322.53
2022-11-16T01:00:20.840Z,94317.19
2022-11-16T01:02:52.472Z,94318.78
2022-11-16T01:05:23.316Z,94305.19
2022-11-16T01:07:54.262Z,94301.72
2022-11-16T01:10:26.770Z,94302.00
2022-11-16T01:12:56.932Z,94300.94
2022-11-16T01:15:28.856Z,94290.00
2022-11-16T01:17:58.632Z,94288.16
2022-11-16T01:20:30.834Z,94292.41
2022-11-16T01:23:00.414Z,94302.56
2022-11-16T01:25:30.089Z,94296.16
2022-11-16T01:28:00.850Z,94297.75
2022-11-16T01:30:41.672Z,94302.03
2022-11-16T01:33:12.486Z,94302.03
2022-11-16T01:35:45.245Z,94299.09
2022-11-16T01:38:17.237Z,94306.03
2022-11-16T01:40:47.669Z,94311.09
2022-11-16T01:43:24.743Z,94298.84
2022-11-16T01:45:58.368Z,94300.44
2022-11-16T01:48:31.834Z,94293.22
2022-11-16T01:51:01.546Z,94296.69
2022-11-16T01:53:32.745Z,94289.22
2022-11-16T01:56:02.441Z,94296.44
2022-11-16T01:58:54.243Z,94295.63
2022-11-16T02:01:27.554Z,94285.22
2022-11-16T02:04:00.548Z,94280.97
2022-11-16T02:06:56.433Z,94280.16
2022-11-16T02:09:55.614Z,94279.38
2022-11-16T02:13:14.271Z,94277.22
2022-11-16T02:16:01.743Z,94273.75
2022-11-16T02:18:46.846Z,94275.91
2022-11-16T02:21:38.588Z,94263.88
2022-11-16T02:24:44.607Z,94264.94
2022-11-16T02:28:05.884Z,94287.88
2022-11-16T02:30:38.029Z,94300.69
2022-11-16T02:33:14.898Z,94314.53
2022-11-16T02:35:50.196Z,94296.44
2022-11-16T02:38:25.611Z,94300.97
2022-11-16T02:41:03.783Z,94298.31
2022-11-16T02:43:39.807Z,94298.53
2022-11-16T02:46:19.759Z,94291.09
2022-11-16T02:48:55.136Z,94286.03
2022-11-16T02:51:27.703Z,94297.22
2022-11-16T02:54:05.670Z,94291.91
2022-11-16T02:56:52.676Z,94278.81
2022-11-16T02:59:32.126Z,94276.44
2022-11-16T03:02:23.991Z,94279.09
2022-11-16T03:05:00.904Z,94269.22
2022-11-16T03:07:40.988Z,94274.28
2022-11-16T03:10:11.516Z,94311.38
2022-11-16T03:12:42.221Z,94320.44
2022-11-16T03:15:14.254Z,94298.53
2022-11-16T03:17:47.386Z,94306.00
2022-11-16T03:20:20.615Z,94319.63
2022-11-16T03:22:55.496Z,94294.03
2022-11-16T03:25:31.046Z,94317.47
2022-11-16T03:28:10.251Z,94304.16
2022-11-16T03:30:49.344Z,94300.97
2022-11-16T03:33:27.065Z,94312.69
2022-11-16T03:36:02.774Z,94310.28
2022-11-16T03:38:37.528Z,94308.44
2022-11-16T03:41:11.620Z,94312.97
2022-11-16T03:43:43.886Z,94319.91
2022-11-16T03:46:15.246Z,94326.03
2022-11-16T03:48:46.100Z,94318.81
2022-11-16T03:51:26.995Z,94335.38
2022-11-16T03:53:57.426Z,94346.84
2022-11-16T03:56:27.105Z,94348.69
2022-11-16T03:58:56.600Z,94360.44
2022-11-16T04:01:26.126Z,94352.69
2022-11-16T04:03:57.361Z,94352.69
2022-11-16T04:06:59.085Z,94356.44
2022-11-16T04:09:46.615Z,94361.50
2022-11-16T04:12:33.593Z,94354.31
2022-11-16T04:15:20.394Z,94354.03
2022-11-16T04:18:07.435Z,94361.78
2022-11-16T04:20:55.281Z,94366.84
2022-11-16T04:23:42.761Z,94367.91
2022-11-16T04:26:13.148Z,94374.03
2022-11-16T04:28:42.367Z,94372.19
2022-11-16T04:31:32.004Z,94370.03
2022-11-16T04:34:23.918Z,94379.13
2022-11-16T04:37:15.111Z,94382.31
2022-11-16T04:39:44.618Z,94384.97
2022-11-16T04:42:17.177Z,94381.78
2022-11-16T04:45:06.708Z,94386.06
2022-11-16T04:47:43.068Z,94390.34
2022-11-16T04:50:12.816Z,94384.72
2022-11-16T04:52:45.216Z,94388.75
2022-11-16T04:55:16.496Z,94387.66
2022-11-16T04:57:48.021Z,94392.22
2022-11-16T05:00:20.159Z,94395.69
2022-11-16T05:02:50.181Z,94393.28
2022-11-16T05:05:20.356Z,94381.78
2022-11-16T05:07:52.650Z,94391.13
2022-11-16T05:10:28.564Z,94392.72
2022-11-16T05:12:59.121Z,94390.06
2022-11-16T05:15:30.220Z,94380.72
2022-11-16T05:18:01.608Z,94386.59
2022-11-16T05:20:50.027Z,94387.69
2022-11-16T05:23:38.161Z,94382.34
2022-11-16T05:26:12.765Z,94383.94
2022-11-16T05:28:42.243Z,94386.31
2022-11-16T05:31:14.158Z,94386.84
2022-11-16T05:33:44.356Z,94382.59
2022-11-16T05:36:42.029Z,94389.53
2022-11-16T05:39:13.306Z,94377.78
2022-11-16T05:41:44.067Z,94383.13
2022-11-16T05:44:14.196Z,94383.13
2022-11-16T05:46:44.883Z,94388.47
2022-11-16T05:49:16.429Z,94370.34
2022-11-16T05:51:48.257Z,94384.47
2022-11-16T05:54:26.102Z,94375.41
2022-11-16T05:56:56.378Z,94378.88
2022-11-16T05:59:27.712Z,94371.94
2022-11-16T06:01:59.085Z,94373.28
2022-11-16T06:04:29.142Z,94373.81
2022-11-16T06:06:58.853Z,94370.59
2022-11-16T06:09:34.340Z,94372.19
2022-11-16T06:12:11.841Z,94375.41
2022-11-16T06:14:41.415Z,94374.59
2022-11-16T06:17:14.597Z,94381.00
2022-11-16T06:19:44.640Z,94381.25
2022-11-16T06:22:14.235Z,94380.44
2022-11-16T06:24:45.275Z,94381.25
2022-11-16T06:27:15.949Z,94381.25
2022-11-16T06:29:47.405Z,94379.38
2022-11-16T06:32:17.117Z,94385.53
2022-11-16T06:34:46.586Z,94387.38
2022-11-16T06:37:16.905Z,94377.50
2022-11-16T06:39:47.900Z,94379.38
2022-11-16T06:42:17.541Z,94374.03
2022-11-16T06:44:47.348Z,94376.44
2022-11-16T06:47:19.851Z,94372.41
2022-11-16T06:49:49.397Z,94382.56
2022-11-16T06:52:25.027Z,94378.81
2022-11-16T06:54:55.959Z,94376.69
2022-11-16T06:57:25.837Z,94376.16
2022-11-16T06:59:55.400Z,94375.06
2022-11-16T07:02:26.138Z,94383.63
2022-11-16T07:05:00.654Z,94382.56
2022-11-16T07:07:33.770Z,94376.94
2022-11-16T07:10:07.293Z,94376.09
2022-11-16T07:12:36.909Z,94372.38
2022-11-16T07:15:10.749Z,94374.75
2022-11-16T07:17:43.793Z,94380.38
2022-11-16T07:20:13.312Z,94376.63
2022-11-16T07:22:43.537Z,94384.09
2022-11-16T07:25:17.548Z,94385.97
2022-11-16T07:27:47.248Z,94393.16
2022-11-16T07:30:18.787Z,94386.75
2022-11-16T07:33:00.000Z,94397.97
2022-11-16T07:35:49.401Z,94389.38
2022-11-16T07:38:19.357Z,94389.13
2022-11-16T07:40:50.309Z,94390.72
2022-11-16T07:43:22.824Z,94396.31
2022-11-16T07:49:11.083Z,94390.69
2022-11-16T07:51:52.788Z,94403.25
2022-11-16T07:54:37.953Z,94398.94
2022-11-16T07:57:08.755Z,94394.66
2022-11-16T07:59:38.245Z,94402.38
2022-11-16T08:02:10.669Z,94402.09
2022-11-16T08:04:42.215Z,94409.03
2022-11-16T08:07:12.276Z,94404.47
2022-11-16T08:09:49.966Z,94407.94
2022-11-16T08:12:21.037Z,94401.75
2022-11-16T08:14:50.585Z,94405.19
2022-11-16T08:17:20.029Z,94403.00
2022-11-16T08:19:50.428Z,94408.06
2022-11-16T08:22:20.884Z,94408.00
2022-11-16T08:24:50.744Z,94411.41
2022-11-16T08:27:21.760Z,94406.00
2022-11-16T08:29:56.100Z,94412.63
2022-11-16T08:32:25.971Z,94409.66
2022-11-16T08:34:56.797Z,94413.91
2022-11-16T08:37:27.859Z,94408.78
2022-11-16T08:39:57.525Z,94414.41
2022-11-16T08:42:28.291Z,94420.81
2022-11-16T08:44:57.742Z,94419.19
2022-11-16T08:47:29.645Z,94430.66
2022-11-16T08:50:01.364Z,94426.31
2022-11-16T08:52:33.747Z,94427.09
2022-11-16T08:55:04.501Z,94424.88
2022-11-16T08:57:37.703Z,94424.28
2022-11-16T09:00:13.458Z,94420.19
2022-11-16T09:02:42.928Z,94430.84
2022-11-16T09:05:12.979Z,94432.69
2022-11-16T09:07:44.077Z,94445.03
2022-11-16T09:10:14.352Z,94439.09
2022-11-16T09:12:45.196Z,94443.66
2022-11-16T09:15:14.658Z,94447.94
2022-11-16T09:17:44.180Z,94454.03
2022-11-16T09:20:13.682Z,94442.22
2022-11-16T09:22:43.175Z,94443.53
2022-11-16T09:25:12.759Z,94447.81
2022-11-16T09:27:42.184Z,94453.16
2022-11-16T09:30:14.810Z,94446.41
2022-11-16T09:32:44.296Z,94448.22
2022-11-16T09:35:13.841Z,94451.72
2022-11-16T09:37:43.278Z,94451.94
2022-11-16T09:40:13.601Z,94455.47
2022-11-16T09:42:58.465Z,94457.59
2022-11-16T09:45:41.025Z,94452.50
2022-11-16T09:48:13.518Z,94455.66
2022-11-16T09:50:51.877Z,94458.63
2022-11-16T09:53:37.902Z,94463.72
2022-11-16T09:56:13.748Z,94454.34
2022-11-16T09:58:56.256Z,94448.34
2022-11-16T10:01:32.395Z,94461.19
2022-11-16T10:04:10.893Z,94456.63
2022-11-16T10:06:53.207Z,94460.91
2022-11-16T10:09:23.371Z,94448.28
2022-11-16T10:12:09.627Z,94446.63
2022-11-16T10:15:28.240Z,94445.28
2022-11-16T10:18:16.350Z,94453.56
2022-11-16T10:21:21.447Z,94457.25
2022-11-16T10:24:14.519Z,94450.88
2022-11-16T10:26:55.206Z,94450.81
2022-11-16T10:29:45.185Z,94439.13
2022-11-16T10:32:25.986Z,94448.69
2022-11-16T10:35:09.323Z,94445.66
2022-11-16T10:37:42.510Z,94432.94
2022-11-16T10:40:24.628Z,94440.28
2022-11-16T10:43:05.868Z,94438.34
2022-11-16T10:45:44.960Z,94435.41
2022-11-16T10:48:36.947Z,94426.72
2022-11-16T10:51:10.762Z,94429.44
2022-11-16T10:53:44.183Z,94424.72
2022-11-16T10:56:23.172Z,94418.69
2022-11-16T10:58:59.363Z,94419.19
2022-11-16T11:01:37.904Z,94411.53
2022-11-16T11:04:24.487Z,94417.13
2022-11-16T11:06:57.887Z,94416.56
2022-11-16T11:09:31.848Z,94416.41
2022-11-16T11:12:41.071Z,94407.25
2022-11-16T11:15:27.103Z,94405.16
2022-11-16T11:18:20.223Z,94405.84
2022-11-16T11:20:54.206Z,94408.75
2022-11-16T11:23:27.435Z,94417.84
2022-11-16T11:26:03.892Z,94409.09
2022-11-16T11:28:37.266Z,94410.97
2022-11-16T11:31:22.512Z,94416.16
2022-11-16T11:33:57.706Z,94409.16
2022-11-16T11:36:40.493Z,94412.97
2022-11-16T11:39:36.828Z,94411.75
2022-11-16T11:42:26.816Z,94407.44
2022-11-16T11:45:03.561Z,94407.25
2022-11-16T11:47:58.484Z,94413.22
2022-11-16T11:50:45.824Z,94412.81
2022-11-16T11:53:47.138Z,94416.13
2022-11-16T11:56:20.140Z,94415.03
2022-11-16T11:58:52.499Z,94420.19
2022-11-16T12:02:16.016Z,94421.69
2022-11-16T12:05:41.353Z,94416.59
2022-11-16T12:08:35.282Z,94420.69
2022-11-16T12:11:16.194Z,94412.63
2022-11-16T12:14:08.375Z,94404.03
2022-11-16T12:16:50.725Z,94407.75
2022-11-16T12:20:09.146Z,94411.31
2022-11-16T12:23:18.328Z,94404.75
2022-11-16T12:25:56.547Z,94396.44
2022-11-16T12:28:51.854Z,94394.53
2022-11-16T12:32:03.919Z,94399.78
2022-11-16T12:34:59.012Z,94400.28
2022-11-16T12:37:39.994Z,94390.91
2022-11-16T12:40:43.945Z,94394.41
2022-11-16T12:43:22.603Z,94394.81
2022-11-16T12:46:14.233Z,94393.09
2022-11-16T12:49:41.189Z,94390.16
2022-11-16T12:52:32.663Z,94384.22
2022-11-16T12:55:26.946Z,94383.91
2022-11-16T12:58:14.000Z,94380.06
2022-11-16T13:01:07.502Z,94379.06
2022-11-16T13:03:46.803Z,94384.16
2022-11-16T13:06:21.344Z,94372.97
2022-11-16T13:09:05.006Z,94376.66
2022-11-16T13:11:40.602Z,94373.97
2022-11-16T13:14:18.390Z,94373.75
2022-11-16T13:16:51.392Z,94371.91
2022-11-16T13:19:21.877Z,94371.78
2022-11-16T13:22:03.209Z,94369.69
2022-11-16T13:24:48.297Z,94366.06
2022-11-16T13:27:35.350Z,94366.78
2022-11-16T13:30:19.298Z,94369.50
2022-11-16T13:33:13.888Z,94360.09
2022-11-16T13:35:43.745Z,94364.75
2022-11-16T13:38:14.632Z,94362.25
2022-11-16T13:41:32.088Z,94369.69
2022-11-16T13:44:02.241Z,94369.22
2022-11-16T13:47:01.047Z,94366.81
2022-11-16T13:49:36.832Z,94361.81
2022-11-16T13:52:23.290Z,94367.22
2022-11-16T13:54:56.898Z,94365.31
2022-11-16T13:57:32.831Z,94362.75
2022-11-16T14:00:24.895Z,94363.09
2022-11-16T14:03:38.578Z,94359.94
2022-11-16T14:07:01.286Z,94354.84
2022-11-16T14:09:49.489Z,94351.25
2022-11-16T14:12:59.225Z,94349.25
2022-11-16T14:15:36.155Z,94353.28
2022-11-16T14:18:37.353Z,94346.81
2022-11-16T14:21:24.543Z,94342.75
2022-11-16T14:24:19.104Z,94330.31
2022-11-16T14:27:04.837Z,94331.31
2022-11-16T14:29:54.580Z,94332.50
2022-11-16T14:32:28.586Z,94327.47
2022-11-16T14:35:02.551Z,94322.91
2022-11-16T14:37:37.168Z,94321.16
2022-11-16T14:40:17.488Z,94318.44
2022-11-16T14:45:42.614Z,94331.75
2022-11-16T14:48:22.557Z,94327.38
2022-11-16T14:51:09.079Z,94329.56
2022-11-16T14:53:47.010Z,94338.59
2022-11-16T14:56:19.135Z,94326.31
2022-11-16T14:58:58.403Z,94320.28
2022-11-16T15:01:30.983Z,94323.41
2022-11-16T15:04:06.043Z,94320.47
2022-11-16T15:06:44.793Z,94322.91
2022-11-16T15:09:25.737Z,94321.66
2022-11-16T15:12:44.242Z,94321.59
2022-11-16T15:15:19.727Z,94321.41
2022-11-16T15:18:09.317Z,94327.53
2022-11-16T15:20:49.372Z,94318.75
2022-11-16T15:23:23.846Z,94320.38
2022-11-16T15:25:59.353Z,94321.41
2022-11-16T15:28:32.874Z,94311.63
2022-11-16T15:31:06.171Z,94310.25
2022-11-16T15:33:42.116Z,94312.06
2022-11-16T15:36:41.884Z,94325.09
2022-11-16T15:39:17.870Z,94330.91
2022-11-16T15:41:48.251Z,94328.16
2022-11-16T15:44:21.387Z,94330.25
2022-11-16T15:46:52.972Z,94329.56
2022-11-16T15:49:31.295Z,94330.78
2022-11-16T15:52:02.057Z,94328.00
2022-11-16T15:55:00.067Z,94325.75
2022-11-16T15:57:29.883Z,94317.34
2022-11-16T15:59:59.621Z,94308.56
2022-11-16T16:02:31.798Z,94311.53
2022-11-16T16:05:01.276Z,94311.34
2022-11-16T16:07:39.057Z,94319.47
2022-11-16T16:10:26.597Z,94314.00
2022-11-16T16:12:58.085Z,94309.78
2022-11-16T16:15:33.713Z,94322.44
2022-11-16T16:18:11.536Z,94319.56
2022-11-16T16:20:41.098Z,94319.38
2022-11-16T16:23:15.794Z,94323.16
2022-11-16T16:25:50.594Z,94316.25
2022-11-16T16:28:20.245Z,94305.63
2022-11-16T16:31:15.448Z,94309.91
2022-11-16T16:33:44.868Z,94314.47
2022-11-16T16:36:15.304Z,94301.97
2022-11-16T16:38:44.813Z,94308.38
2022-11-16T16:41:24.201Z,94309.69
2022-11-16T16:43:54.495Z,94312.91
2022-11-16T16:47:45.557Z,94321.22
2022-11-16T16:50:15.303Z,94322.53
2022-11-16T16:52:45.622Z,94315.06
2022-11-16T16:55:15.410Z,94319.34
2022-11-16T16:57:46.325Z,94319.34
2022-11-16T17:00:18.165Z,94327.34
